createdAt,value
2019-04-22T00:01:40.458Z,13.60
2019-04-22T00:04:17.836Z,12.35
2019-04-22T00:07:03.178Z,10.95
2019-04-22T00:09:45.779Z,10.63
2019-04-22T00:14:43.862Z,13.18
2019-04-22T00:17:23.426Z,11.38
2019-04-22T00:19:50.730Z,12.60
2019-04-22T00:22:22.095Z,12.50
2019-04-22T00:25:02.977Z,11.97
2019-04-22T00:27:37.221Z,12.40
2019-04-22T00:32:30.565Z,14.15
2019-04-22T00:35:07.244Z,11.00
2019-04-22T00:37:46.251Z,12.82
2019-04-22T00:40:14.851Z,12.15
2019-04-22T00:42:47.732Z,12.55
2019-04-22T00:45:19.077Z,14.18
2019-04-22T00:47:43.758Z,13.32
2019-04-22T00:50:25.473Z,10.30
2019-04-22T00:53:02.508Z,11.88
2019-04-22T00:55:24.815Z,12.60
2019-04-22T00:58:02.871Z,12.15
2019-04-22T01:00:40.986Z,13.98
2019-04-22T01:03:11.798Z,14.65
2019-04-22T01:05:41.938Z,12.65
2019-04-22T01:08:15.195Z,15.00
2019-04-22T01:10:49.850Z,13.22
2019-04-22T01:13:22.342Z,15.50
2019-04-22T01:15:55.687Z,12.90
2019-04-22T01:18:24.942Z,15.15
2019-04-22T01:21:09.498Z,13.70
2019-04-22T01:23:28.089Z,14.70
2019-04-22T01:25:57.065Z,13.93
2019-04-22T01:28:25.394Z,15.25
2019-04-22T01:30:51.699Z,14.33
2019-04-22T01:33:24.066Z,17.25
2019-04-22T01:36:07.843Z,17.92
2019-04-22T01:38:45.413Z,18.15
2019-04-22T01:41:23.364Z,14.65
2019-04-22T01:44:00.298Z,14.60
2019-04-22T01:46:25.236Z,17.15
2019-04-22T01:48:57.824Z,15.15
2019-04-22T01:51:28.332Z,16.05
2019-04-22T01:54:05.194Z,16.15
2019-04-22T01:56:34.931Z,19.10
2019-04-22T01:58:54.728Z,16.30
2019-04-22T02:01:37.173Z,16.55
2019-04-22T02:04:08.190Z,16.40
2019-04-22T02:06:44.647Z,16.30
2019-04-22T02:09:17.766Z,17.40
2019-04-22T02:11:48.836Z,16.42
2019-04-22T02:14:20.720Z,17.32
2019-04-22T02:16:50.057Z,17.60
2019-04-22T02:19:28.423Z,19.92
2019-04-22T02:21:48.811Z,22.80
2019-04-22T02:24:28.267Z,21.15
2019-04-22T02:26:54.712Z,18.70
2019-04-22T02:29:30.061Z,21.37
2019-04-22T02:39:41.079Z,18.17
2019-04-22T02:42:10.604Z,18.02
2019-04-22T02:44:42.838Z,17.50
2019-04-22T02:47:20.582Z,20.27
2019-04-22T02:49:45.431Z,17.62
2019-04-22T02:52:26.179Z,20.35
2019-04-22T02:54:54.763Z,18.85
2019-04-22T02:57:31.904Z,24.32
2019-04-22T03:05:12.982Z,21.20
2019-04-22T03:07:38.138Z,21.42
2019-04-22T03:12:35.246Z,18.80
2019-04-22T03:15:07.943Z,19.95
2019-04-22T03:22:51.111Z,20.17
2019-04-22T03:27:47.821Z,22.65
2019-04-22T03:35:37.554Z,21.85
2019-04-22T03:40:38.800Z,22.87
2019-04-22T03:43:08.055Z,27.07
2019-04-22T03:45:30.245Z,19.42
2019-04-22T03:53:14.897Z,23.12
2019-04-22T03:55:43.386Z,23.38
2019-04-22T03:58:18.975Z,23.52
2019-04-22T04:03:40.448Z,21.50
2019-04-22T04:08:35.632Z,25.43
2019-04-22T04:10:53.393Z,26.45
2019-04-22T04:13:33.865Z,23.45
2019-04-22T04:16:06.008Z,27.52
2019-04-22T04:18:56.104Z,26.05
2019-04-22T04:21:22.201Z,25.02
2019-04-22T04:23:50.446Z,26.20
2019-04-22T04:26:33.510Z,28.40
2019-04-22T04:31:25.018Z,28.05
2019-04-22T04:33:54.559Z,28.15
2019-04-22T04:38:58.377Z,27.73
2019-04-22T04:46:53.935Z,29.07
2019-04-22T04:54:23.868Z,31.68
2019-04-22T05:01:44.928Z,30.55
2019-04-22T05:07:00.060Z,31.55
2019-04-22T05:12:12.514Z,34.90
2019-04-22T05:16:54.904Z,35.80
2019-04-22T05:19:26.136Z,32.78
2019-04-22T05:21:59.547Z,33.40
2019-04-22T05:24:42.563Z,36.05
2019-04-22T05:27:05.385Z,33.75
2019-04-22T05:29:41.941Z,34.40
2019-04-22T05:32:01.475Z,32.08
2019-04-22T05:34:33.571Z,33.28
2019-04-22T05:37:07.345Z,33.75
2019-04-22T05:39:38.876Z,34.63
2019-04-22T05:42:16.039Z,32.93
2019-04-22T05:47:15.273Z,32.30
2019-04-22T05:49:41.335Z,34.48
2019-04-22T05:52:20.647Z,33.05
2019-04-22T05:54:54.961Z,33.83
2019-04-22T05:57:24.365Z,33.33
2019-04-22T05:59:59.408Z,35.13
2019-04-22T06:02:40.051Z,30.43
2019-04-22T06:05:07.016Z,28.92
2019-04-22T06:07:35.250Z,33.67
2019-04-22T06:10:15.945Z,35.03
2019-04-22T06:12:32.666Z,36.23
2019-04-22T06:15:13.223Z,33.18
2019-04-22T06:17:49.335Z,36.28
2019-04-22T06:20:15.493Z,34.25
2019-04-22T06:22:50.429Z,34.35
2019-04-22T06:25:27.810Z,33.20
2019-04-22T06:28:00.239Z,33.10
2019-04-22T06:33:00.807Z,28.32
2019-04-22T06:40:41.855Z,31.17
2019-04-22T06:43:12.961Z,29.25
2019-04-22T06:45:39.686Z,32.35
2019-04-22T06:48:18.902Z,28.75
2019-04-22T06:50:50.447Z,28.07
2019-04-22T06:53:17.387Z,28.65
2019-04-22T06:55:56.329Z,25.62
2019-04-22T06:58:20.145Z,27.82
2019-04-22T07:00:52.132Z,25.72
2019-04-22T07:05:59.556Z,23.70
2019-04-22T07:11:10.951Z,26.00
2019-04-22T07:13:43.282Z,22.10
2019-04-22T07:16:05.080Z,19.00
2019-04-22T07:21:06.439Z,20.10
2019-04-22T07:26:18.947Z,21.10
2019-04-22T07:28:44.865Z,16.32
2019-04-22T07:31:16.279Z,16.27
2019-04-22T07:33:51.742Z,18.52
2019-04-22T07:38:56.461Z,16.23
2019-04-22T07:41:28.768Z,16.77
2019-04-22T07:46:39.087Z,17.57
2019-04-22T07:49:06.316Z,12.68
2019-04-22T07:51:42.073Z,16.77
2019-04-22T07:54:06.265Z,15.25
2019-04-22T07:56:36.708Z,18.65
2019-04-22T07:59:17.158Z,14.55
2019-04-22T08:01:42.289Z,17.50
2019-04-22T08:04:24.323Z,14.70
2019-04-22T08:06:52.710Z,16.70
2019-04-22T08:11:52.228Z,14.40
2019-04-22T08:14:29.741Z,16.15
2019-04-22T08:17:00.994Z,14.87
2019-04-22T08:19:33.214Z,13.28
2019-04-22T08:22:05.999Z,16.20
2019-04-22T08:24:36.284Z,16.87
2019-04-22T08:27:04.525Z,15.10
2019-04-22T08:29:48.729Z,16.52
2019-04-22T08:32:05.211Z,17.35
2019-04-22T08:34:38.203Z,17.37
2019-04-22T08:37:44.781Z,17.40
2019-04-22T08:39:40.651Z,15.45
2019-04-22T08:42:27.157Z,14.55
2019-04-22T08:45:09.396Z,15.40
2019-04-22T08:47:26.245Z,15.78
2019-04-22T08:52:27.522Z,14.60
2019-04-22T08:57:34.741Z,14.58
2019-04-22T09:00:02.805Z,16.23
2019-04-22T09:05:20.382Z,16.40
2019-04-22T09:07:36.733Z,14.00
2019-04-22T09:10:13.047Z,13.48
2019-04-22T09:12:57.799Z,11.35
2019-04-22T09:15:20.684Z,17.77
2019-04-22T09:17:47.935Z,13.00
2019-04-22T09:20:20.731Z,13.65
2019-04-22T09:22:53.908Z,13.78
2019-04-22T09:25:24.141Z,13.93
2019-04-22T09:27:55.976Z,15.68
2019-04-22T09:30:34.404Z,13.68
2019-04-22T09:33:01.324Z,16.17
2019-04-22T09:35:40.379Z,14.28
2019-04-22T09:38:22.818Z,10.08
2019-04-22T09:40:40.443Z,11.10
2019-04-22T09:43:11.483Z,12.45
2019-04-22T09:45:44.779Z,12.33
2019-04-22T09:48:18.410Z,12.60
2019-04-22T09:50:48.035Z,11.88
2019-04-22T09:53:24.791Z,12.80
2019-04-22T09:55:53.168Z,10.68
2019-04-22T09:58:27.995Z,9.75
2019-04-22T10:01:30.749Z,11.65
2019-04-22T10:03:51.656Z,10.78
2019-04-22T10:09:02.079Z,11.57
2019-04-22T10:11:26.904Z,8.58
2019-04-22T10:13:59.793Z,10.23
2019-04-22T10:16:31.271Z,9.95
2019-04-22T10:18:58.772Z,10.00
2019-04-22T10:24:03.323Z,7.45
2019-04-22T10:26:39.456Z,8.68
2019-04-22T10:29:10.699Z,10.40
2019-04-22T10:34:00.119Z,8.68
2019-04-22T10:36:21.346Z,7.58
2019-04-22T10:38:52.551Z,7.55
2019-04-22T10:41:22.982Z,8.20
2019-04-22T10:43:53.277Z,6.15
2019-04-22T10:46:24.262Z,7.45
2019-04-22T10:48:54.736Z,12.82
2019-04-22T10:51:26.483Z,6.05
2019-04-22T10:53:57.625Z,6.37
2019-04-22T10:56:28.365Z,6.37
2019-04-22T10:58:58.707Z,7.50
2019-04-22T11:01:29.584Z,8.70
2019-04-22T11:04:01.378Z,6.05
2019-04-22T11:06:33.688Z,9.55
2019-04-22T11:09:06.239Z,7.37
2019-04-22T11:11:47.995Z,7.15
2019-04-22T11:14:08.946Z,5.70
2019-04-22T11:16:39.626Z,6.53
2019-04-22T11:19:10.034Z,8.30
2019-04-22T11:21:41.316Z,6.65
2019-04-22T11:24:12.631Z,7.40
2019-04-22T11:26:43.200Z,8.23
2019-04-22T11:29:14.075Z,5.50
2019-04-22T11:31:44.580Z,6.97
2019-04-22T11:34:15.406Z,5.75
2019-04-22T11:36:47.060Z,6.22
2019-04-22T11:39:17.595Z,9.00
2019-04-22T11:41:49.850Z,8.00
2019-04-22T11:44:21.395Z,6.72
2019-04-22T11:46:51.853Z,8.25
2019-04-22T11:49:23.628Z,6.80
2019-04-22T11:51:54.267Z,5.22
2019-04-22T11:54:25.120Z,8.33
2019-04-22T11:56:56.857Z,8.50
2019-04-22T11:59:28.847Z,8.90
2019-04-22T12:02:00.550Z,6.55
2019-04-22T12:04:32.113Z,6.78
2019-04-22T12:07:02.508Z,8.33
2019-04-22T12:09:33.382Z,6.58
2019-04-22T12:12:05.740Z,7.03
2019-04-22T12:14:36.278Z,9.03
2019-04-22T12:17:07.762Z,13.38
2019-04-22T12:19:40.103Z,9.73
2019-04-22T12:22:11.057Z,8.60
2019-04-22T12:24:42.504Z,7.97
2019-04-22T12:27:14.301Z,7.58
2019-04-22T12:29:44.942Z,7.17
2019-04-22T12:32:15.834Z,7.12
2019-04-22T12:34:47.178Z,8.93
2019-04-22T12:37:24.832Z,6.85
2019-04-22T12:39:53.010Z,6.87
2019-04-22T12:42:21.635Z,5.85
2019-04-22T12:44:52.010Z,7.50
2019-04-22T12:47:24.326Z,7.15
2019-04-22T12:50:07.952Z,8.13
2019-04-22T12:52:37.626Z,8.15
2019-04-22T12:54:58.896Z,9.75
2019-04-22T12:57:30.301Z,7.75
2019-04-22T13:00:01.935Z,10.23
2019-04-22T13:02:33.177Z,7.90
2019-04-22T13:05:08.055Z,6.30
2019-04-22T13:07:39.806Z,6.62
2019-04-22T13:10:13.814Z,7.40
2019-04-22T13:12:44.810Z,7.50
2019-04-22T13:15:19.988Z,7.55
2019-04-22T13:18:04.616Z,6.58
2019-04-22T13:20:24.322Z,7.47
2019-04-22T13:22:57.019Z,7.83
2019-04-22T13:25:30.005Z,7.90
2019-04-22T13:28:00.967Z,7.85
2019-04-22T13:30:34.631Z,7.40
2019-04-22T13:33:05.418Z,6.47
2019-04-22T13:35:36.230Z,6.70
2019-04-22T13:38:06.984Z,10.25
2019-04-22T13:40:37.317Z,7.90
2019-04-22T13:43:08.793Z,7.90
2019-04-22T13:45:40.748Z,6.80
2019-04-22T13:48:29.735Z,6.78
2019-04-22T13:51:21.797Z,6.67
2019-04-22T13:56:10.567Z,9.60
2019-04-22T13:58:38.528Z,6.97
2019-04-22T14:00:54.386Z,8.75
2019-04-22T14:03:42.823Z,6.90
2019-04-22T14:06:14.461Z,7.47
2019-04-22T14:08:45.217Z,5.87
2019-04-22T14:11:30.040Z,5.80
2019-04-22T14:13:50.230Z,6.97
2019-04-22T14:16:20.703Z,6.28
2019-04-22T14:18:51.979Z,6.37
2019-04-22T14:21:22.891Z,5.50
2019-04-22T14:23:53.383Z,6.30
2019-04-22T14:26:25.022Z,7.55
2019-04-22T14:28:55.764Z,7.03
2019-04-22T14:31:26.737Z,7.20
2019-04-22T14:34:01.760Z,8.88
2019-04-22T14:36:30.067Z,8.05
2019-04-22T14:39:01.918Z,7.25
2019-04-22T14:41:46.670Z,10.32
2019-04-22T14:47:09.099Z,7.35
2019-04-22T14:49:37.044Z,5.62
2019-04-22T14:52:10.703Z,7.83
2019-04-22T14:54:34.071Z,6.67
2019-04-22T14:56:46.756Z,7.58
2019-04-22T14:59:17.083Z,7.72
2019-04-22T15:01:47.619Z,7.05
2019-04-22T15:04:19.398Z,6.65
2019-04-22T15:06:50.427Z,8.63
2019-04-22T15:09:21.843Z,5.75
2019-04-22T15:12:04.890Z,5.15
2019-04-22T15:14:25.592Z,5.78
2019-04-22T15:17:00.882Z,5.55
2019-04-22T15:19:35.879Z,5.03
2019-04-22T15:22:06.283Z,5.47
2019-04-22T15:24:36.774Z,6.15
2019-04-22T15:27:08.638Z,8.05
2019-04-22T15:29:39.225Z,5.83
2019-04-22T15:32:09.524Z,7.17
2019-04-22T15:34:41.456Z,4.25
2019-04-22T15:37:12.093Z,8.18
2019-04-22T15:39:43.705Z,5.75
2019-04-22T15:42:21.850Z,6.60
2019-04-22T15:44:46.321Z,6.37
2019-04-22T15:47:16.600Z,6.50
2019-04-22T15:49:47.863Z,4.75
2019-04-22T15:52:18.935Z,5.28
2019-04-22T15:54:51.803Z,6.17
2019-04-22T15:57:22.510Z,4.92
2019-04-22T16:00:10.622Z,6.97
2019-04-22T16:02:25.773Z,5.90
2019-04-22T16:04:56.866Z,4.70
2019-04-22T16:07:27.711Z,6.17
2019-04-22T16:09:59.525Z,5.35
2019-04-22T16:12:37.704Z,8.38
2019-04-22T16:15:05.605Z,5.05
2019-04-22T16:17:37.128Z,6.37
2019-04-22T16:20:09.126Z,4.50
2019-04-22T16:22:59.337Z,9.73
2019-04-22T16:25:49.375Z,5.90
2019-04-22T16:28:21.246Z,5.85
2019-04-22T16:30:53.079Z,5.60
2019-04-22T16:33:23.611Z,4.10
2019-04-22T16:35:55.061Z,4.12
2019-04-22T16:38:26.777Z,7.15
2019-04-22T16:40:58.874Z,7.70
2019-04-22T16:43:30.714Z,5.78
2019-04-22T16:46:01.658Z,4.72
2019-04-22T16:48:31.941Z,5.45
2019-04-22T16:51:02.457Z,5.10
2019-04-22T16:53:32.819Z,7.05
2019-04-22T16:56:04.620Z,4.30
2019-04-22T16:58:36.819Z,5.58
2019-04-22T17:01:10.257Z,4.78
2019-04-22T17:03:54.581Z,4.55
2019-04-22T17:06:27.727Z,5.15
2019-04-22T17:08:58.043Z,3.85
2019-04-22T17:11:29.782Z,5.05
2019-04-22T17:14:01.322Z,3.47
2019-04-22T17:16:32.580Z,3.65
2019-04-22T17:19:04.481Z,6.15
2019-04-22T17:21:35.421Z,3.90
2019-04-22T17:24:07.771Z,6.87
2019-04-22T17:26:38.785Z,4.00
2019-04-22T17:29:10.384Z,4.03
2019-04-22T17:31:48.467Z,4.22
2019-04-22T17:34:13.811Z,6.15
2019-04-22T17:36:44.427Z,4.65
2019-04-22T17:39:30.240Z,5.30
2019-04-22T17:42:11.089Z,3.33
2019-04-22T17:47:10.624Z,3.85
2019-04-22T17:49:57.895Z,3.77
2019-04-22T17:52:30.434Z,4.05
2019-04-22T17:54:54.325Z,3.62
2019-04-22T17:57:29.521Z,3.77
2019-04-22T18:00:04.811Z,2.87
2019-04-22T18:02:27.933Z,3.67
2019-04-22T18:04:51.744Z,5.12
2019-04-22T18:07:40.647Z,2.85
2019-04-22T18:12:44.167Z,3.45
2019-04-22T18:15:14.657Z,3.37
2019-04-22T18:17:52.628Z,3.37
2019-04-22T18:20:13.106Z,2.92
2019-04-22T18:22:39.346Z,3.10
2019-04-22T18:25:13.359Z,3.95
2019-04-22T18:28:00.747Z,2.83
2019-04-22T18:30:20.343Z,3.47
2019-04-22T18:33:00.677Z,2.65
2019-04-22T18:35:30.998Z,2.08
2019-04-22T18:38:11.260Z,3.12
2019-04-22T18:40:37.247Z,3.70
2019-04-22T18:43:11.620Z,2.12
2019-04-22T18:45:52.744Z,3.15
2019-04-22T18:48:08.937Z,2.87
2019-04-22T18:50:56.382Z,2.17
2019-04-22T18:53:35.166Z,3.92
2019-04-22T18:56:16.481Z,3.83
2019-04-22T18:58:42.064Z,2.83
2019-04-22T19:00:57.835Z,2.25
2019-04-22T19:03:31.700Z,2.90
2019-04-22T19:06:31.875Z,2.45
2019-04-22T19:08:55.617Z,3.50
2019-04-22T19:11:26.976Z,2.42
2019-04-22T19:14:07.503Z,2.87
2019-04-22T19:16:36.112Z,2.12
2019-04-22T19:19:30.141Z,5.35
2019-04-22T19:21:32.488Z,1.55
2019-04-22T19:24:04.009Z,3.00
2019-04-22T19:26:50.039Z,3.10
2019-04-22T19:29:18.647Z,2.00
2019-04-22T19:31:47.247Z,2.70
2019-04-22T19:34:23.308Z,3.30
2019-04-22T19:36:51.209Z,4.45
2019-04-22T19:39:17.400Z,2.05
2019-04-22T19:42:08.171Z,10.25
2019-04-22T19:44:33.275Z,4.05
2019-04-22T19:47:18.178Z,6.70
2019-04-22T19:49:36.605Z,2.67
2019-04-22T19:52:11.439Z,3.17
2019-04-22T19:54:38.993Z,5.35
2019-04-22T19:57:03.625Z,3.62
2019-04-22T19:59:45.424Z,3.87
2019-04-22T20:02:22.200Z,3.42
2019-04-22T20:05:26.142Z,3.98
2019-04-22T20:07:48.793Z,7.62
2019-04-22T20:10:27.381Z,6.20
2019-04-22T20:12:55.826Z,4.70
2019-04-22T20:15:22.666Z,7.03
2019-04-22T20:20:40.944Z,3.92
2019-04-22T20:23:02.901Z,7.70
2019-04-22T20:25:34.868Z,7.75
2019-04-22T20:28:12.995Z,5.83
2019-04-22T20:30:46.596Z,5.03
2019-04-22T20:33:13.853Z,6.62
2019-04-22T20:35:50.306Z,3.80
2019-04-22T20:38:19.973Z,5.47
2019-04-22T20:40:50.470Z,4.90
2019-04-22T20:43:37.976Z,3.80
2019-04-22T20:45:57.727Z,5.90
2019-04-22T20:48:28.604Z,10.50
2019-04-22T20:51:04.221Z,6.42
2019-04-22T20:53:36.719Z,3.45
2019-04-22T20:56:05.596Z,5.25
2019-04-22T20:58:42.189Z,5.83
2019-04-22T21:01:01.321Z,4.90
2019-04-22T21:03:33.314Z,3.27
2019-04-22T21:06:10.331Z,3.80
2019-04-22T21:08:46.867Z,5.08
2019-04-22T21:11:17.520Z,5.30
2019-04-22T21:13:48.197Z,8.88
2019-04-22T21:16:27.060Z,6.17
2019-04-22T21:18:46.244Z,4.62
2019-04-22T21:21:31.981Z,4.40
2019-04-22T21:23:53.985Z,3.12
2019-04-22T21:26:30.814Z,3.22
2019-04-22T21:29:02.255Z,4.47
2019-04-22T21:31:43.735Z,3.45
2019-04-22T21:34:05.170Z,5.87
2019-04-22T21:36:43.092Z,4.03
2019-04-22T21:39:09.657Z,4.87
2019-04-22T21:41:40.259Z,3.67
2019-04-22T21:44:14.363Z,3.83
2019-04-22T21:46:51.750Z,4.22
2019-04-22T21:49:25.010Z,4.33
2019-04-22T21:51:56.829Z,3.42
2019-04-22T21:54:26.739Z,4.85
2019-04-22T21:59:34.286Z,7.10
2019-04-22T22:02:12.313Z,5.53
2019-04-22T22:04:38.632Z,4.92
2019-04-22T22:07:04.499Z,6.62
2019-04-22T22:09:49.097Z,3.67
2019-04-22T22:12:17.854Z,4.72
2019-04-22T22:14:49.959Z,2.75
2019-04-22T22:17:22.596Z,4.67
2019-04-22T22:19:55.612Z,2.62
2019-04-22T22:22:42.125Z,4.60
2019-04-22T22:25:04.704Z,3.47
2019-04-22T22:27:31.174Z,4.62
2019-04-22T22:30:19.324Z,2.77
2019-04-22T22:32:35.042Z,3.95
2019-04-22T22:35:12.045Z,5.78
2019-04-22T22:37:31.175Z,3.15
2019-04-22T22:40:02.774Z,5.42
2019-04-22T22:42:33.647Z,4.03
2019-04-22T22:45:07.868Z,4.35
2019-04-22T22:47:47.161Z,6.08
2019-04-22T22:50:20.567Z,6.30
2019-04-22T22:55:28.441Z,2.55
2019-04-22T22:58:06.233Z,3.55
2019-04-22T23:00:36.951Z,3.33
2019-04-22T23:03:28.499Z,2.77
2019-04-22T23:05:45.342Z,4.22
2019-04-22T23:08:22.748Z,3.37
2019-04-22T23:10:55.429Z,2.45
2019-04-22T23:13:22.100Z,3.12
2019-04-22T23:15:46.650Z,2.98
2019-04-22T23:18:03.709Z,2.67
2019-04-22T23:20:38.222Z,3.65
2019-04-22T23:23:29.674Z,3.42
2019-04-22T23:26:03.835Z,5.37
2019-04-22T23:28:43.071Z,4.65
2019-04-22T23:31:21.029Z,3.08
2019-04-22T23:34:01.174Z,3.42
2019-04-22T23:36:49.885Z,6.87
2019-04-22T23:39:30.906Z,4.45
2019-04-22T23:42:07.905Z,3.12
2019-04-22T23:44:31.918Z,3.70
2019-04-22T23:47:04.686Z,3.35
2019-04-22T23:49:37.943Z,6.72
2019-04-22T23:52:19.443Z,3.37
2019-04-22T23:54:52.141Z,2.08
2019-04-22T23:57:26.331Z,5.08
2019-04-22T23:59:58.514Z,4.10
